FRIANT DAM (MILLERTON) (MIL)

Elevation: 581' · SAN JOAQUIN R basin · Operator: US Bureau of Reclamation

Provisional data, subject to change.
Query executed Tuesday at 15:13:29   clock

Select a sensor type for a plot of data.
Note: Reservoir Flows are daily averages.

Earlier

Date RES ELE    STORAGE    RES CHG    TOC STO    ABV TOC    OUTFLOW    INFLOW    EVAP    FNF    RIV REL    PPT INC    SPILL   
 FEET   AF   AF   AF   AF   CFS   CFS   CFS   CFS   CFS   INCHES   CFS  
08/24/2014 507.30 237768 -781 520500 -282732 1383 1037 48 174 e 1296 0.00 0
08/25/2014 507.03 236924 -844 520500 -283576 1295 896 27 145 e 1295 0.00 0
08/26/2014 506.82 236272 -652 520500 -284228 1300 1000 29 102 e 1300 0.00 0
08/27/2014 506.33 234752 -1520 520500 -285748 1422 704 48 102 e 1301 0.00 0
08/28/2014 505.83 233206 -1546 520500 -287294 1505 761 35 130 e 1300 0.00 0
08/29/2014 505.43 231975 -1231 520500 -288525 1502 913 32 130 e 1298 0.00 0
08/30/2014 505.05 230806 -1169 520500 -289694 1500 950 39 130 e 1297 0.00 0
08/31/2014 504.48 229065 -1741 520500 -291435 1497 650 31 130 e 1295 0.00 0
09/01/2014 504.20 228211 -854 520500 -292289 1377 980 34 119 e 1293 0.00 0
09/02/2014 503.79 226965 -1246 520500 -293535 1298 714 44 149 e 1298 0.00 0
09/03/2014 503.22 225240 -1725 520500 -295260 1390 553 33 149 e 1299 0.00 0
09/04/2014 502.53 223164 -2076 520500 -297336 1494 476 29 149 e 1297 0.00 0
09/05/2014 502.13 221963 -1201 520500 -298537 1490 930 45 140 e 1294 0.00 0
09/06/2014 501.61 220412 -1551 520500 -300088 1493 739 28 135 e 1298 0.00 0
09/07/2014 501.12 218953 -1459 520500 -301547 1494 789 31 132 e 1300 0.00 0
09/08/2014 500.95 218448 -505 520500 -302052 1524 1295 26 127 e 1298 0.00 0
09/09/2014 500.32 216589 -1859 520500 -303911 1545 635 27 124 e 1297 0.00 0
09/10/2014 499.55 214327 -2262 520500 -306173 1539 426 27 120 e 1293 0.00 0
09/11/2014 498.59 211525 -2802 520500 -308975 1505 123 31 116 e 1295 0.00 0
09/12/2014 497.80 209236 -2289 520500 -311264 1480 360 34 113 e 1295 0.00 0
09/13/2014 496.97 206846 -2390 520500 -313654 1481 312 36 109 e 1298 0.00 0
09/14/2014 496.16 204534 -2312 520500 -- 1481 345 30 105 e 1300 0.00 0
09/15/2014 495.27 202011 -2523 520500 -318489 1524 286 34 103 e 1303 0.00 0
09/16/2014 494.25 199143 -2868 520500 -321357 1545 123 24 100 e 1298 0.00 0
09/17/2014 493.39 196743 -2400 520500 -323757 1539 356 27 98 e 1295 0.00 0
09/18/2014 492.56 194444 -2299 520500 -326056 1503 371 27 95 e 1303 0.00 0
09/19/2014 491.87 192544 -1900 520500 -327956 1355 414 17 93 e 1187 0.00 0
09/20/2014 491.18 190657 -1887 520500 -329843 1263 338 26 92 e 1097 0.00 0
09/21/2014 490.58 189027 -1630 520500 -- 1260 461 23 90 e 1096 0.00 0
09/22/2014 490.00 187455 -1572 520500 -333045 1143 367 17 20 981 0.00 0
09/23/2014 -- -- -- -- -- -- -- -- -- -- -- --

Later | Latest

Warning! This data is preliminary and subject to revision.

Download Data Now Download Data Now | Show MIL Map | Plot MIL Data | 1 Month MIL Data | Real-Time MIL Data | MIL Info